Time;durP1;ratioP1;P1;durP2;ratioP2;P2;SDS_P1;SDS_P2;PMS_P1;PMS_P2;Temp;Humidity;BMP_temperature;BMP_pressure;BME280_temperature;BME280_humidity;BME280_pressure;Samples;Min_cycle;Max_cycle;Signal;HPM_P1;HPM_P2
2021/05/22 00:01:20;;;;;;;;;;;12.50;91.00;;;;;;5090751;28;19923;-87
2021/05/22 00:03:46;;;;;;;;;;;12.60;91.00;;;;;;5092051;28;19913;-87
2021/05/22 00:06:11;;;;;;;;;;;12.50;90.90;;;;;;5088672;28;20311;-87
2021/05/22 00:08:37;;;;;;;;;;;12.50;91.00;;;;;;5072414;28;19908;-87
2021/05/22 00:11:02;;;;;;;;;;;12.60;90.70;;;;;;5087185;28;19908;-88
2021/05/22 00:13:28;;;;;;;;;;;12.50;90.90;;;;;;5072256;28;19908;-87
2021/05/22 00:15:53;;;;;;;;;;;12.50;90.90;;;;;;5087947;28;20384;-87
2021/05/22 00:18:19;;;;;;;;;;;12.50;90.80;;;;;;5088039;28;19912;-88
2021/05/22 00:20:45;;;;;;;;;;;12.50;90.60;;;;;;5071503;28;19909;-88
2021/05/22 00:23:11;;;;;;;;;;;12.50;90.80;;;;;;5087715;28;20372;-87
2021/05/22 00:25:37;;;;;;;;;;;12.40;90.50;;;;;;5087686;28;19991;-87
2021/05/22 00:28:03;;;;;;;;;;;12.40;90.50;;;;;;5087725;28;20392;-87
2021/05/22 00:30:28;;;;;;;;;;;12.50;90.60;;;;;;5086865;28;19908;-87
2021/05/22 00:32:54;;;;;;;;;;;12.40;90.30;;;;;;5087795;28;19916;-87
2021/05/22 00:35:19;;;;;;;;;;;12.40;90.20;;;;;;5087717;28;19959;-87
2021/05/22 00:37:45;;;;;;;;;;;12.50;90.10;;;;;;5087511;28;19912;-87
2021/05/22 00:40:11;;;;;;;;;;;12.50;90.00;;;;;;5071194;28;19965;-87
2021/05/22 00:42:39;;;;;;;;;;;12.60;89.80;;;;;;5087437;28;19913;-87
2021/05/22 00:45:18;;;;;;;;;;;12.50;89.80;;;;;;5087550;28;20447;-87
2021/05/22 00:47:45;;;;;;;;;;;12.50;89.50;;;;;;5071990;28;19912;-87
2021/05/22 00:50:20;;;;;;;;;;;12.40;89.60;;;;;;5086979;28;20319;-87
2021/05/22 00:52:46;;;;;;;;;;;12.50;89.60;;;;;;5087268;28;19912;-87
2021/05/22 00:55:12;;;;;;;;;;;12.50;89.30;;;;;;5087322;28;19912;-87
2021/05/22 00:57:39;;;;;;;;;;;12.50;88.90;;;;;;5087273;28;19970;-87
2021/05/22 01:00:07;;;;;;;;;;;12.50;88.80;;;;;;5071337;28;20392;-87
2021/05/22 01:02:32;;;;;;;;;;;12.40;88.40;;;;;;5071710;28;19908;-87
2021/05/22 01:04:58;;;;;;;;;;;12.40;88.80;;;;;;5087369;28;19915;-87
2021/05/22 01:07:23;;;;;;;;;;;12.40;89.10;;;;;;5071752;28;19909;-87
2021/05/22 01:09:50;;;;;;;;;;;12.40;88.30;;;;;;5086632;28;19909;-87
2021/05/22 01:12:17;;;;;;;;;;;12.40;88.60;;;;;;5087364;28;19920;-86
2021/05/22 01:14:46;;;;;;;;;;;12.40;87.60;;;;;;5090836;28;19963;-87
2021/05/22 01:17:13;;;;;;;;;;;12.40;88.00;;;;;;5090747;28;19917;-87
2021/05/22 01:19:42;;;;;;;;;;;12.30;87.90;;;;;;5075185;28;19979;-87
2021/05/22 01:22:10;;;;;;;;;;;12.30;88.00;;;;;;5090846;28;20296;-87
2021/05/22 01:24:48;;;;;;;;;;;12.30;87.80;;;;;;5075103;28;20261;-87
2021/05/22 01:27:14;;;;;;;;;;;12.30;87.80;;;;;;5074958;28;20365;-87
2021/05/22 01:29:39;;;;;;;;;;;12.20;88.00;;;;;;5074631;28;19996;-87
2021/05/22 01:32:07;;;;;;;;;;;12.20;88.30;;;;;;5090408;28;19909;-87
2021/05/22 01:34:33;;;;;;;;;;;12.30;88.40;;;;;;5074990;28;19915;-87
2021/05/22 01:36:58;;;;;;;;;;;12.20;88.30;;;;;;5090699;28;20011;-88
2021/05/22 01:39:24;;;;;;;;;;;12.20;88.60;;;;;;5090003;28;19916;-87
2021/05/22 01:41:49;;;;;;;;;;;12.20;88.70;;;;;;5090234;28;20353;-87
2021/05/22 01:44:15;;;;;;;;;;;12.20;89.10;;;;;;5090455;28;19916;-87
2021/05/22 01:46:42;;;;;;;;;;;12.20;88.90;;;;;;5090485;28;19916;-87
2021/05/22 01:49:09;;;;;;;;;;;12.20;89.10;;;;;;5090118;28;19919;-87
2021/05/22 01:51:35;;;;;;;;;;;12.20;89.10;;;;;;5074602;28;20413;-87
2021/05/22 01:54:01;;;;;;;;;;;12.10;89.40;;;;;;5074866;28;19909;-87
2021/05/22 01:56:27;;;;;;;;;;;12.10;89.70;;;;;;5074542;28;20279;-88
2021/05/22 01:58:52;;;;;;;;;;;12.20;89.40;;;;;;5090032;28;19908;-87
2021/05/22 02:01:18;;;;;;;;;;;12.10;89.40;;;;;;5089962;28;19915;-87
2021/05/22 02:03:47;;;;;;;;;;;12.10;89.70;;;;;;5090313;28;20341;-88
2021/05/22 02:06:26;;;;;;;;;;;12.00;89.90;;;;;;5090043;28;19955;-87
2021/05/22 02:08:54;;;;;;;;;;;12.10;90.10;;;;;;5089468;28;19958;-87
2021/05/22 02:11:20;;;;;;;;;;;12.10;90.00;;;;;;5088986;28;19909;-87
2021/05/22 02:13:46;;;;;;;;;;;12.00;89.80;;;;;;5090264;28;19917;-87
2021/05/22 02:16:14;;;;;;;;;;;12.00;90.10;;;;;;5091650;28;19974;-88
2021/05/22 02:18:41;;;;;;;;;;;12.00;90.20;;;;;;5093613;28;19908;-87
2021/05/22 02:21:07;;;;;;;;;;;12.00;90.10;;;;;;5076870;28;19913;-87
2021/05/22 02:23:34;;;;;;;;;;;12.00;90.00;;;;;;5093989;28;20353;-88
2021/05/22 02:25:59;;;;;;;;;;;11.90;89.60;;;;;;5076544;28;20216;-88
2021/05/22 02:28:27;;;;;;;;;;;12.00;89.60;;;;;;5092213;28;19958;-87
2021/05/22 02:30:53;;;;;;;;;;;12.00;89.90;;;;;;5090617;28;19912;-87
2021/05/22 02:33:19;;;;;;;;;;;12.00;89.90;;;;;;5090250;28;19915;-87
2021/05/22 02:35:45;;;;;;;;;;;12.00;89.80;;;;;;5089498;28;20324;-88
2021/05/22 02:38:14;;;;;;;;;;;12.00;89.90;;;;;;5073896;28;19944;-87
2021/05/22 02:40:40;;;;;;;;;;;12.00;89.20;;;;;;5088887;28;20508;-88
2021/05/22 02:43:07;;;;;;;;;;;12.10;89.10;;;;;;5089208;28;20007;-87
2021/05/22 02:45:36;;;;;;;;;;;12.00;89.00;;;;;;5073690;28;19908;-87
2021/05/22 02:48:03;;;;;;;;;;;12.00;88.80;;;;;;5073619;28;19909;-87
2021/05/22 02:50:29;;;;;;;;;;;12.00;89.30;;;;;;5088628;28;19908;-88
2021/05/22 02:52:55;;;;;;;;;;;12.00;88.80;;;;;;5088907;28;19908;-88
2021/05/22 02:55:21;;;;;;;;;;;12.00;89.10;;;;;;5073417;28;19912;-87
2021/05/22 02:57:48;;;;;;;;;;;12.10;89.40;;;;;;5088977;28;19927;-87
2021/05/22 03:00:14;;;;;;;;;;;12.10;89.10;;;;;;5072830;28;19935;-87
2021/05/22 03:02:40;;;;;;;;;;;12.00;89.10;;;;;;5089075;28;19995;-87
2021/05/22 03:05:07;;;;;;;;;;;12.00;89.10;;;;;;5073214;28;19958;-87
2021/05/22 03:07:35;;;;;;;;;;;12.00;88.90;;;;;;5088766;28;19916;-87
2021/05/22 03:10:03;;;;;;;;;;;12.00;88.80;;;;;;5088165;28;19909;-87
2021/05/22 03:12:31;;;;;;;;;;;12.10;88.70;;;;;;5088850;28;19943;-87
2021/05/22 03:14:57;;;;;;;;;;;12.00;88.40;;;;;;5088702;28;19909;-87
2021/05/22 03:17:22;;;;;;;;;;;12.00;88.80;;;;;;5072991;28;20015;-87
2021/05/22 03:19:48;;;;;;;;;;;12.00;88.40;;;;;;5087980;28;19931;-87
2021/05/22 03:22:13;;;;;;;;;;;12.10;88.60;;;;;;5088472;28;19912;-87
2021/05/22 03:24:39;;;;;;;;;;;12.00;88.50;;;;;;5088690;28;19909;-87
2021/05/22 03:27:04;;;;;;;;;;;12.10;88.20;;;;;;5088588;28;19909;-87
2021/05/22 03:29:30;;;;;;;;;;;12.00;88.50;;;;;;5072400;28;20361;-87
2021/05/22 03:31:56;;;;;;;;;;;11.90;88.50;;;;;;5088378;28;19981;-87
2021/05/22 03:34:22;;;;;;;;;;;11.90;88.60;;;;;;5088271;28;20325;-87
2021/05/22 03:36:47;;;;;;;;;;;11.90;88.70;;;;;;5088296;28;19913;-87
2021/05/22 03:39:12;;;;;;;;;;;11.90;89.50;;;;;;5087949;28;19913;-87
2021/05/22 03:41:38;;;;;;;;;;;11.90;88.90;;;;;;5072463;28;19923;-87
2021/05/22 03:44:04;;;;;;;;;;;11.90;89.10;;;;;;5088098;28;19909;-87
2021/05/22 03:46:29;;;;;;;;;;;11.90;89.80;;;;;;5088374;28;19908;-88
2021/05/22 03:48:55;;;;;;;;;;;11.80;89.20;;;;;;5072099;28;19908;-87
2021/05/22 03:51:23;;;;;;;;;;;11.80;89.40;;;;;;5088013;28;19908;-87
2021/05/22 03:53:49;;;;;;;;;;;11.80;89.30;;;;;;5088272;28;20007;-87
2021/05/22 03:56:14;;;;;;;;;;;11.70;89.50;;;;;;5087749;28;19956;-87
2021/05/22 03:58:40;;;;;;;;;;;11.80;89.60;;;;;;5088297;28;19975;-88
2021/05/22 04:01:05;;;;;;;;;;;11.80;90.00;;;;;;5072101;28;20334;-87
2021/05/22 04:03:31;;;;;;;;;;;11.80;89.70;;;;;;5087963;28;19912;-87
2021/05/22 04:05:56;;;;;;;;;;;11.90;89.80;;;;;;5087915;28;20315;-87
2021/05/22 04:08:22;;;;;;;;;;;11.80;89.90;;;;;;5072394;28;19908;-87
2021/05/22 04:10:48;;;;;;;;;;;11.80;89.70;;;;;;5087256;28;19962;-87
2021/05/22 04:13:14;;;;;;;;;;;11.80;89.90;;;;;;5087927;28;19951;-87
2021/05/22 04:15:39;;;;;;;;;;;11.80;90.20;;;;;;5087953;28;20447;-87
2021/05/22 04:18:05;;;;;;;;;;;11.90;90.00;;;;;;5087751;28;19913;-87
2021/05/22 04:20:30;;;;;;;;;;;11.90;90.00;;;;;;5087285;28;19923;-87
2021/05/22 04:22:56;;;;;;;;;;;11.90;90.00;;;;;;5087774;28;19919;-87
2021/05/22 04:25:21;;;;;;;;;;;11.90;89.60;;;;;;5087885;28;19909;-87
2021/05/22 04:27:47;;;;;;;;;;;11.90;89.80;;;;;;5087804;28;19915;-87
2021/05/22 04:30:13;;;;;;;;;;;11.90;90.00;;;;;;5071536;28;20023;-87
2021/05/22 04:32:38;;;;;;;;;;;12.00;89.90;;;;;;5087399;28;19913;-88
2021/05/22 04:35:05;;;;;;;;;;;12.00;90.10;;;;;;5087774;28;19952;-87
2021/05/22 04:37:30;;;;;;;;;;;12.00;90.00;;;;;;5087601;28;19919;-87
2021/05/22 04:39:56;;;;;;;;;;;12.00;90.10;;;;;;5087091;28;20212;-87
2021/05/22 04:42:21;;;;;;;;;;;12.00;90.30;;;;;;5087761;28;19926;-87
2021/05/22 04:44:47;;;;;;;;;;;12.00;90.20;;;;;;5087379;28;19914;-87
2021/05/22 04:47:12;;;;;;;;;;;12.00;90.20;;;;;;5087720;28;19961;-87
2021/05/22 04:49:38;;;;;;;;;;;12.00;90.40;;;;;;5090747;28;19916;-87
2021/05/22 04:52:04;;;;;;;;;;;12.00;90.40;;;;;;5091296;28;19912;-87
2021/05/22 04:54:29;;;;;;;;;;;12.00;90.40;;;;;;5091345;28;19913;-87
2021/05/22 04:56:55;;;;;;;;;;;11.90;90.50;;;;;;5091272;28;19963;-87
2021/05/22 04:59:20;;;;;;;;;;;11.90;90.60;;;;;;5090749;28;20334;-87
2021/05/22 05:01:46;;;;;;;;;;;11.90;90.60;;;;;;5091278;28;20372;-87
2021/05/22 05:04:11;;;;;;;;;;;12.00;90.60;;;;;;5091121;28;19916;-87
2021/05/22 05:06:37;;;;;;;;;;;12.00;90.50;;;;;;5075407;28;20049;-87
2021/05/22 05:09:04;;;;;;;;;;;11.90;90.60;;;;;;5090514;28;19908;-88
2021/05/22 05:11:30;;;;;;;;;;;12.00;90.50;;;;;;5090960;28;19908;-87
2021/05/22 05:13:56;;;;;;;;;;;11.90;90.70;;;;;;5091064;28;19913;-87
2021/05/22 05:16:21;;;;;;;;;;;12.00;90.70;;;;;;5075532;28;19923;-87
2021/05/22 05:18:47;;;;;;;;;;;12.00;90.70;;;;;;5090803;28;19909;-88
2021/05/22 05:21:12;;;;;;;;;;;12.00;90.80;;;;;;5075741;28;19915;-87
2021/05/22 05:23:38;;;;;;;;;;;12.00;90.70;;;;;;5090865;28;19988;-87
2021/05/22 05:26:04;;;;;;;;;;;12.00;90.70;;;;;;5090920;28;19909;-87
2021/05/22 05:28:30;;;;;;;;;;;12.00;90.40;;;;;;5075375;28;19908;-87
2021/05/22 05:30:55;;;;;;;;;;;12.00;90.60;;;;;;5078561;28;19920;-87
2021/05/22 05:33:21;;;;;;;;;;;12.00;90.50;;;;;;5081140;28;19908;-87
2021/05/22 05:35:47;;;;;;;;;;;12.00;90.40;;;;;;5095732;28;19916;-87
2021/05/22 05:38:13;;;;;;;;;;;12.00;90.40;;;;;;5096313;28;19952;-87
2021/05/22 05:40:39;;;;;;;;;;;12.00;90.50;;;;;;5099002;28;19916;-87
2021/05/22 05:43:09;;;;;;;;;;;12.10;90.20;;;;;;5095044;28;20352;-87
2021/05/22 05:45:34;;;;;;;;;;;12.10;90.20;;;;;;5092338;28;19908;-88
2021/05/22 05:48:00;;;;;;;;;;;12.10;90.30;;;;;;5090898;28;20426;-87
2021/05/22 05:50:26;;;;;;;;;;;12.00;90.30;;;;;;5090455;28;19955;-88
2021/05/22 05:52:51;;;;;;;;;;;12.10;90.30;;;;;;5090960;28;19916;-88
2021/05/22 05:55:17;;;;;;;;;;;12.10;90.30;;;;;;5090838;28;19954;-87
2021/05/22 05:58:20;;;;;;;;;;;12.20;90.30;;;;;;5075038;28;19951;-87
2021/05/22 06:07:26;;;;;;;;;;;12.00;90.40;;;;;;5088032;28;19961;-88
2021/05/22 06:10:01;;;;;;;;;;;12.10;90.80;;;;;;5085284;28;19981;-87
2021/05/22 06:12:26;;;;;;;;;;;12.00;90.90;;;;;;5085651;28;20002;-87
2021/05/22 06:14:55;;;;;;;;;;;12.00;91.00;;;;;;5096300;28;19909;-87
2021/05/22 06:17:21;;;;;;;;;;;12.00;91.50;;;;;;5090107;28;19913;-87
2021/05/22 06:25:53;;;;;;;;;;;11.90;91.50;;;;;;5074794;28;19915;-87
2021/05/22 06:31:05;;;;;;;;;;;11.90;91.50;;;;;;5073723;28;20323;-87
2021/05/22 06:33:31;;;;;;;;;;;11.90;91.40;;;;;;5089489;28;19919;-87
2021/05/22 06:35:57;;;;;;;;;;;11.90;91.40;;;;;;5089771;28;19959;-87
2021/05/22 06:38:22;;;;;;;;;;;11.90;91.30;;;;;;5089478;28;19928;-87
2021/05/22 06:40:48;;;;;;;;;;;11.90;91.40;;;;;;5088749;28;19919;-87
2021/05/22 06:43:16;;;;;;;;;;;12.00;92.00;;;;;;5089562;28;19955;-88
2021/05/22 06:45:45;;;;;;;;;;;11.90;91.90;;;;;;5074153;28;20369;-87
2021/05/22 06:48:12;;;;;;;;;;;11.90;91.90;;;;;;5089415;28;19962;-87
2021/05/22 06:50:41;;;;;;;;;;;11.90;92.00;;;;;;5088678;28;19919;-87
2021/05/22 06:53:10;;;;;;;;;;;11.90;92.10;;;;;;5089244;28;20331;-87
2021/05/22 06:55:35;;;;;;;;;;;11.90;92.30;;;;;;5073312;28;19930;-87
2021/05/22 06:58:01;;;;;;;;;;;11.90;92.60;;;;;;5073473;28;19920;-88
2021/05/22 07:00:27;;;;;;;;;;;11.90;92.00;;;;;;5073051;28;19908;-87
2021/05/22 07:02:55;;;;;;;;;;;11.90;91.80;;;;;;5073262;28;20285;-88
2021/05/22 07:05:30;;;;;;;;;;;11.90;91.50;;;;;;5089484;28;19999;-87
2021/05/22 07:07:55;;;;;;;;;;;11.90;91.60;;;;;;5088928;28;19914;-87
2021/05/22 07:10:21;;;;;;;;;;;12.00;91.60;;;;;;5088041;28;20054;-87
2021/05/22 07:12:46;;;;;;;;;;;11.90;91.60;;;;;;5088845;28;19970;-88
2021/05/22 07:15:12;;;;;;;;;;;11.90;91.40;;;;;;5089083;28;20007;-88
2021/05/22 07:17:38;;;;;;;;;;;12.00;91.40;;;;;;5088492;28;19919;-88
2021/05/22 07:20:04;;;;;;;;;;;12.00;91.30;;;;;;5088257;28;19912;-87
2021/05/22 07:22:29;;;;;;;;;;;12.00;91.40;;;;;;5088605;28;20017;-88
2021/05/22 07:24:55;;;;;;;;;;;12.00;91.50;;;;;;5088753;28;20439;-87
2021/05/22 07:27:20;;;;;;;;;;;12.00;92.10;;;;;;5073066;28;19932;-88
2021/05/22 07:29:47;;;;;;;;;;;12.00;92.40;;;;;;5087950;28;19909;-87
2021/05/22 07:32:13;;;;;;;;;;;12.00;92.10;;;;;;5088146;28;19910;-88
2021/05/22 07:34:39;;;;;;;;;;;11.90;92.10;;;;;;5088494;28;19908;-88
2021/05/22 07:37:05;;;;;;;;;;;11.80;92.00;;;;;;5088538;28;19966;-87
2021/05/22 07:39:30;;;;;;;;;;;11.80;92.30;;;;;;5072280;28;20430;-87
2021/05/22 07:41:56;;;;;;;;;;;11.80;92.30;;;;;;5072438;28;19921;-87
2021/05/22 07:44:21;;;;;;;;;;;11.80;92.10;;;;;;5088127;28;19908;-87
2021/05/22 07:46:47;;;;;;;;;;;11.80;92.50;;;;;;5088292;28;19912;-87
2021/05/22 07:49:12;;;;;;;;;;;11.70;92.70;;;;;;5087622;28;19913;-87
2021/05/22 07:51:39;;;;;;;;;;;11.70;93.10;;;;;;5072469;28;19923;-87
2021/05/22 07:54:05;;;;;;;;;;;11.70;93.20;;;;;;5088271;28;19908;-88
2021/05/22 07:56:30;;;;;;;;;;;11.60;93.50;;;;;;5087960;28;20246;-87
2021/05/22 07:58:56;;;;;;;;;;;11.60;93.90;;;;;;5087614;28;19920;-88
2021/05/22 08:01:21;;;;;;;;;;;11.70;94.10;;;;;;5087996;28;20395;-87
2021/05/22 08:03:47;;;;;;;;;;;11.60;93.90;;;;;;5088070;28;19915;-87
2021/05/22 08:06:13;;;;;;;;;;;11.60;94.40;;;;;;5072389;28;19912;-87
2021/05/22 08:08:38;;;;;;;;;;;11.60;94.50;;;;;;5072506;28;19908;-87
2021/05/22 08:11:04;;;;;;;;;;;11.60;94.50;;;;;;5087718;28;19909;-87
2021/05/22 08:13:31;;;;;;;;;;;11.50;95.10;;;;;;5072352;28;19934;-87
2021/05/22 08:15:57;;;;;;;;;;;11.50;95.30;;;;;;5087724;28;20015;-87
2021/05/22 08:18:22;;;;;;;;;;;11.50;95.30;;;;;;5072555;28;20003;-87
2021/05/22 08:20:48;;;;;;;;;;;11.40;95.30;;;;;;5071749;28;19960;-88
2021/05/22 08:23:14;;;;;;;;;;;11.40;95.70;;;;;;5073863;28;19916;-87
2021/05/22 08:25:39;;;;;;;;;;;11.40;95.40;;;;;;5092071;28;19912;-87
2021/05/22 08:28:06;;;;;;;;;;;11.40;95.80;;;;;;5076346;28;19909;-88
2021/05/22 08:30:32;;;;;;;;;;;11.40;95.90;;;;;;5075932;28;19920;-87
2021/05/22 08:32:58;;;;;;;;;;;11.50;96.00;;;;;;5091924;28;19908;-87
2021/05/22 08:35:23;;;;;;;;;;;11.40;96.10;;;;;;5076168;28;20369;-87
2021/05/22 08:37:49;;;;;;;;;;;11.40;96.20;;;;;;5076009;28;19912;-88
2021/05/22 08:40:15;;;;;;;;;;;11.50;96.40;;;;;;5091352;28;19908;-87
2021/05/22 08:42:41;;;;;;;;;;;11.40;96.50;;;;;;5091654;28;19921;-88
2021/05/22 08:45:08;;;;;;;;;;;11.50;96.50;;;;;;5076606;28;19920;-88
2021/05/22 08:47:37;;;;;;;;;;;11.50;96.50;;;;;;5076560;28;20349;-88
2021/05/22 08:50:07;;;;;;;;;;;11.50;96.70;;;;;;5091568;28;19908;-87
2021/05/22 08:52:32;;;;;;;;;;;11.60;97.40;;;;;;5092862;28;19909;-87
2021/05/22 08:54:58;;;;;;;;;;;11.60;97.20;;;;;;5092750;28;19908;-88
2021/05/22 08:57:24;;;;;;;;;;;11.60;97.40;;;;;;5091691;28;19961;-87
2021/05/22 08:59:49;;;;;;;;;;;11.60;96.90;;;;;;5075432;28;19908;-87
2021/05/22 09:02:17;;;;;;;;;;;11.50;96.70;;;;;;5091253;28;19908;-88
2021/05/22 09:05:02;;;;;;;;;;;11.50;97.30;;;;;;5075918;28;19909;-87
2021/05/22 09:07:28;;;;;;;;;;;11.50;97.20;;;;;;5091210;28;19916;-88
2021/05/22 09:09:54;;;;;;;;;;;11.60;96.80;;;;;;5090722;28;20365;-87
2021/05/22 09:12:20;;;;;;;;;;;11.60;96.60;;;;;;5090970;28;19908;-87
2021/05/22 09:14:51;;;;;;;;;;;11.70;97.00;;;;;;5090993;28;20365;-88
2021/05/22 09:17:17;;;;;;;;;;;11.60;96.90;;;;;;5091029;28;19912;-87
2021/05/22 09:19:42;;;;;;;;;;;11.70;97.00;;;;;;5090886;28;19909;-87
2021/05/22 09:22:12;;;;;;;;;;;11.70;97.20;;;;;;5090842;28;19908;-87
2021/05/22 09:24:56;;;;;;;;;;;11.70;97.20;;;;;;5090840;28;19933;-87
2021/05/22 09:27:21;;;;;;;;;;;11.70;96.60;;;;;;5090980;28;19954;-87
2021/05/22 09:29:49;;;;;;;;;;;11.80;96.60;;;;;;5075122;28;19959;-87
2021/05/22 09:32:14;;;;;;;;;;;11.70;96.80;;;;;;5075711;28;20369;-87
2021/05/22 09:34:40;;;;;;;;;;;11.80;96.70;;;;;;5090991;28;19912;-87
2021/05/22 09:37:10;;;;;;;;;;;11.90;96.60;;;;;;5091476;28;20377;-87
2021/05/22 09:39:43;;;;;;;;;;;11.90;96.30;;;;;;5075070;28;19913;-87
2021/05/22 09:42:09;;;;;;;;;;;11.90;96.10;;;;;;5090809;28;19922;-87
2021/05/22 09:44:34;;;;;;;;;;;12.00;96.00;;;;;;5091345;28;19909;-87
2021/05/22 09:47:02;;;;;;;;;;;12.00;95.70;;;;;;5090885;28;19912;-87
2021/05/22 09:49:32;;;;;;;;;;;12.10;95.70;;;;;;5074968;28;19915;-87
2021/05/22 09:52:01;;;;;;;;;;;12.10;95.50;;;;;;5075527;28;19962;-87
2021/05/22 09:54:39;;;;;;;;;;;12.10;95.30;;;;;;5075401;28;20285;-87
2021/05/22 09:57:04;;;;;;;;;;;12.20;95.40;;;;;;5090253;28;20011;-87
2021/05/22 09:59:30;;;;;;;;;;;12.20;95.40;;;;;;5090268;28;19951;-87
2021/05/22 10:01:58;;;;;;;;;;;12.20;95.40;;;;;;5090778;28;19912;-87
2021/05/22 10:04:24;;;;;;;;;;;12.30;95.50;;;;;;5075253;28;19908;-88
2021/05/22 10:06:49;;;;;;;;;;;12.20;95.40;;;;;;5090664;28;19915;-87
2021/05/22 10:09:16;;;;;;;;;;;12.20;95.60;;;;;;5089963;28;19912;-87
2021/05/22 10:12:04;;;;;;;;;;;12.20;95.70;;;;;;5090432;28;20029;-87
2021/05/22 10:14:32;;;;;;;;;;;12.20;95.10;;;;;;5090681;28;19944;-87
2021/05/22 10:16:58;;;;;;;;;;;12.20;95.40;;;;;;5090669;28;20357;-87
2021/05/22 10:19:25;;;;;;;;;;;12.20;95.70;;;;;;5074496;28;19915;-87
2021/05/22 10:21:51;;;;;;;;;;;12.20;95.50;;;;;;5090189;28;19912;-87
2021/05/22 10:24:17;;;;;;;;;;;12.20;95.40;;;;;;5074735;28;19970;-87
2021/05/22 10:26:44;;;;;;;;;;;12.20;95.60;;;;;;5090356;28;19915;-87
2021/05/22 10:29:09;;;;;;;;;;;12.20;95.70;;;;;;5073915;28;20007;-87
2021/05/22 10:31:41;;;;;;;;;;;12.20;95.80;;;;;;5090048;28;20008;-87
2021/05/22 10:34:11;;;;;;;;;;;12.20;95.90;;;;;;5075099;28;19908;-87
2021/05/22 10:36:46;;;;;;;;;;;12.20;96.20;;;;;;5090039;28;20003;-87
2021/05/22 10:39:30;;;;;;;;;;;12.30;96.20;;;;;;5089340;28;19908;-87
2021/05/22 10:41:56;;;;;;;;;;;12.30;95.70;;;;;;5073917;28;20458;-87
2021/05/22 10:44:28;;;;;;;;;;;12.30;95.90;;;;;;5089714;28;19957;-87
2021/05/22 10:47:03;;;;;;;;;;;12.30;96.00;;;;;;5089460;28;20334;-88
2021/05/22 10:49:44;;;;;;;;;;;12.30;96.40;;;;;;5089459;28;19908;-87
2021/05/22 10:52:17;;;;;;;;;;;12.30;96.30;;;;;;5090068;28;19909;-87
2021/05/22 10:55:02;;;;;;;;;;;12.30;96.40;;;;;;5089939;28;20369;-87
2021/05/22 10:57:28;;;;;;;;;;;12.30;96.70;;;;;;5061728;28;19951;-87
2021/05/22 11:00:23;;;;;;;;;;;12.20;96.50;;;;;;5089340;28;19915;-87
2021/05/22 11:02:52;;;;;;;;;;;12.20;96.40;;;;;;5064776;28;20331;-87
2021/05/22 11:05:27;;;;;;;;;;;12.20;96.90;;;;;;5089374;28;19908;-87
2021/05/22 11:08:08;;;;;;;;;;;12.20;96.30;;;;;;5090535;28;19947;-87
2021/05/22 11:10:37;;;;;;;;;;;12.20;97.00;;;;;;5089528;28;20294;-87
2021/05/22 11:13:03;;;;;;;;;;;12.20;97.10;;;;;;5091764;28;20008;-87
2021/05/22 11:15:38;;;;;;;;;;;12.20;97.30;;;;;;5089785;28;20382;-87
2021/05/22 11:18:04;;;;;;;;;;;12.20;97.10;;;;;;5089385;28;19925;-87
2021/05/22 11:20:29;;;;;;;;;;;12.20;97.40;;;;;;5088746;28;20007;-86
2021/05/22 11:22:56;;;;;;;;;;;12.10;97.20;;;;;;5089470;28;19908;-87
2021/05/22 11:25:22;;;;;;;;;;;12.10;97.10;;;;;;5089217;28;19909;-87
2021/05/22 11:27:49;;;;;;;;;;;12.10;97.60;;;;;;5073623;28;19923;-86
2021/05/22 11:30:16;;;;;;;;;;;12.10;97.70;;;;;;5088730;28;19908;-87
2021/05/22 11:32:43;;;;;;;;;;;12.10;97.70;;;;;;5073388;28;19909;-87
2021/05/22 11:35:24;;;;;;;;;;;12.10;97.70;;;;;;5089305;28;19916;-87
2021/05/22 11:37:50;;;;;;;;;;;12.10;97.90;;;;;;5073336;28;19952;-87
2021/05/22 11:40:34;;;;;;;;;;;12.10;97.80;;;;;;5088902;28;20427;-88
2021/05/22 11:43:20;;;;;;;;;;;12.10;97.50;;;;;;5073224;28;19924;-87
2021/05/22 11:45:45;;;;;;;;;;;12.10;97.40;;;;;;5089248;28;19916;-87
2021/05/22 11:48:26;;;;;;;;;;;12.10;97.70;;;;;;5089317;28;19916;-87
2021/05/22 11:50:53;;;;;;;;;;;12.20;97.80;;;;;;5088358;28;20361;-88
2021/05/22 11:53:19;;;;;;;;;;;12.10;97.10;;;;;;5073415;28;20011;-88
2021/05/22 11:55:53;;;;;;;;;;;12.00;97.10;;;;;;5073282;28;20374;-87
2021/05/22 11:58:19;;;;;;;;;;;12.10;97.30;;;;;;5072285;28;19913;-87
2021/05/22 12:00:45;;;;;;;;;;;12.00;97.30;;;;;;5088320;28;20007;-87
2021/05/22 12:03:20;;;;;;;;;;;12.10;97.60;;;;;;5088660;28;19909;-88
2021/05/22 12:05:46;;;;;;;;;;;12.10;97.90;;;;;;5088678;28;19916;-87
2021/05/22 12:08:15;;;;;;;;;;;12.10;97.60;;;;;;5088479;28;20323;-87
2021/05/22 12:10:41;;;;;;;;;;;12.10;97.30;;;;;;5072277;28;19908;-86
2021/05/22 12:13:06;;;;;;;;;;;12.10;97.00;;;;;;5088459;28;19916;-87
2021/05/22 12:15:32;;;;;;;;;;;12.20;97.10;;;;;;5088664;28;19912;-87
2021/05/22 12:18:05;;;;;;;;;;;12.20;97.00;;;;;;5072968;28;19916;-87
2021/05/22 12:20:43;;;;;;;;;;;12.20;97.10;;;;;;5087838;28;19915;-87
2021/05/22 12:23:21;;;;;;;;;;;12.30;97.00;;;;;;5088657;28;19968;-87
2021/05/22 12:25:47;;;;;;;;;;;12.30;97.00;;;;;;5088408;28;19952;-87
2021/05/22 12:28:12;;;;;;;;;;;12.30;96.00;;;;;;5088193;28;19955;-87
2021/05/22 12:30:38;;;;;;;;;;;12.40;96.40;;;;;;5087776;28;19963;-87
2021/05/22 12:33:11;;;;;;;;;;;12.40;96.40;;;;;;5087988;28;20020;-88
2021/05/22 12:35:36;;;;;;;;;;;12.40;96.20;;;;;;5088343;28;19912;-87
2021/05/22 12:38:02;;;;;;;;;;;12.50;96.30;;;;;;5088287;28;19919;-87
2021/05/22 12:40:27;;;;;;;;;;;12.50;95.90;;;;;;5072251;28;19935;-87
2021/05/22 12:42:53;;;;;;;;;;;12.50;96.10;;;;;;5088005;28;19922;-87
2021/05/22 12:45:19;;;;;;;;;;;12.50;95.50;;;;;;5072731;28;19909;-87
2021/05/22 12:47:46;;;;;;;;;;;12.50;95.70;;;;;;5088453;28;19908;-87
2021/05/22 12:50:17;;;;;;;;;;;12.50;95.70;;;;;;5087904;28;20331;-87
2021/05/22 12:52:53;;;;;;;;;;;12.40;95.60;;;;;;5088270;28;19915;-87
2021/05/22 12:55:29;;;;;;;;;;;12.40;95.40;;;;;;5088127;28;19912;-87
2021/05/22 12:57:55;;;;;;;;;;;12.40;95.20;;;;;;5072375;28;19935;-87
2021/05/22 13:00:22;;;;;;;;;;;12.40;96.00;;;;;;5087398;28;19909;-87
2021/05/22 13:02:55;;;;;;;;;;;12.30;96.30;;;;;;5087987;28;20388;-87
2021/05/22 13:05:23;;;;;;;;;;;12.30;96.80;;;;;;5088015;28;19962;-87
2021/05/22 13:07:53;;;;;;;;;;;12.40;97.00;;;;;;5088199;28;19947;-87
2021/05/22 13:10:21;;;;;;;;;;;12.30;96.80;;;;;;5090201;28;19909;-87
2021/05/22 13:12:58;;;;;;;;;;;12.30;96.70;;;;;;5091468;28;19999;-87
2021/05/22 13:15:27;;;;;;;;;;;12.30;97.10;;;;;;5091676;28;20391;-87
2021/05/22 13:17:54;;;;;;;;;;;12.30;97.00;;;;;;5075988;28;20217;-87
2021/05/22 13:20:23;;;;;;;;;;;12.30;97.20;;;;;;5090817;28;19954;-87
2021/05/22 13:22:50;;;;;;;;;;;12.30;97.30;;;;;;5075725;28;20190;-87
2021/05/22 13:25:19;;;;;;;;;;;12.30;96.70;;;;;;5075924;28;19908;-87
2021/05/22 13:28:28;;;;;;;;;;;12.30;97.10;;;;;;5075580;28;19916;-87
2021/05/22 13:31:00;;;;;;;;;;;12.30;97.30;;;;;;5015960;28;20003;-87
2021/05/22 13:33:32;;;;;;;;;;;12.30;97.50;;;;;;5033278;28;20012;-87
2021/05/22 13:35:58;;;;;;;;;;;12.30;97.60;;;;;;5065624;28;19944;-87
2021/05/22 13:38:23;;;;;;;;;;;12.30;97.40;;;;;;5075331;28;19954;-87
2021/05/22 13:40:49;;;;;;;;;;;12.30;97.50;;;;;;5089927;28;19908;-87
2021/05/22 13:43:15;;;;;;;;;;;12.20;97.20;;;;;;5075063;28;20136;-87
2021/05/22 13:45:41;;;;;;;;;;;12.20;97.30;;;;;;5090461;28;19916;-87
2021/05/22 13:48:07;;;;;;;;;;;12.10;97.70;;;;;;5090919;28;19909;-87
2021/05/22 13:50:32;;;;;;;;;;;12.10;97.80;;;;;;5089988;28;19915;-87
2021/05/22 13:52:58;;;;;;;;;;;12.10;98.00;;;;;;5074777;28;20273;-87
2021/05/22 13:55:23;;;;;;;;;;;12.10;98.30;;;;;;5090377;28;20392;-87
2021/05/22 13:57:49;;;;;;;;;;;12.10;98.10;;;;;;5090366;28;19913;-87
2021/05/22 14:00:16;;;;;;;;;;;12.10;98.10;;;;;;5089901;28;20434;-87
2021/05/22 14:02:42;;;;;;;;;;;12.10;98.30;;;;;;5074496;28;19908;-87
2021/05/22 14:05:08;;;;;;;;;;;12.10;98.30;;;;;;5090854;28;20056;-87
2021/05/22 14:07:33;;;;;;;;;;;12.10;98.10;;;;;;5091038;28;19918;-87
2021/05/22 14:10:00;;;;;;;;;;;12.10;98.10;;;;;;5090004;28;19963;-87
2021/05/22 14:12:25;;;;;;;;;;;12.10;98.30;;;;;;5090777;28;19908;-87
2021/05/22 14:14:51;;;;;;;;;;;12.10;98.40;;;;;;5090653;28;19955;-87
2021/05/22 14:17:16;;;;;;;;;;;12.10;98.70;;;;;;5090534;28;20425;-88
2021/05/22 14:19:42;;;;;;;;;;;12.00;98.80;;;;;;5074181;28;19908;-87
2021/05/22 14:22:08;;;;;;;;;;;12.00;99.20;;;;;;5088913;28;19914;-87
2021/05/22 14:24:33;;;;;;;;;;;12.00;99.30;;;;;;5074787;28;19916;-87
2021/05/22 14:26:59;;;;;;;;;;;12.00;99.70;;;;;;5074481;28;19908;-87
2021/05/22 14:29:24;;;;;;;;;;;11.90;99.60;;;;;;5089064;28;19908;-87
2021/05/22 14:31:50;;;;;;;;;;;11.90;99.90;;;;;;5089661;28;19909;-87
2021/05/22 14:34:15;;;;;;;;;;;11.90;99.90;;;;;;5074092;28;19934;-87